Latest Weather Observations for White Cliffs AWS

IDN60801

Issued at 8:02 pm EST Sunday 2 August 2015 (issued every 30 minutes, with the page automatically refreshed every 10 minutes)

About weather observations | Map of weather stations | Latest weather observations for NSW | Other Formats
Station Details ID: 046129 Name: WHITE CLIFFS AWS Lat: -30.85 Lon: 143.07 Height: 158.0 m
Data from the previous 72 hours. | See also: Recent months at White Cliffs AWS
Date/Time
EST
Temp
°C
App
Temp
°C
Dew
Point
Rel
Hum
%
Delta-T
°C
Wind Press
QNH
hPa
Press
MSL
hPa
Rain
since 9 am
mm
Dir
 
Spd
km/h
Gust
km/h
Spd
kts
Gust
kts
02/08:00pm 10.6 7.2 3.9 63 3.0 S 11 13 6 7 1021.9 1021.9 0.0
02/07:30pm 11.4 8.0 4.2 61 3.2 S 11 13 6 7 1021.5 1021.5 0.0
02/07:00pm 12.3 9.0 4.5 59 3.6 S 11 13 6 7 1021.1 1021.1 0.0
02/06:30pm 13.4 9.0 4.8 56 4.0 S 17 19 9 10 1020.5 1020.5 0.0
02/06:00pm 14.3 9.4 4.9 53 4.4 SSW 20 26 11 14 1019.9 1019.9 0.0
02/05:30pm 15.0 9.3 4.7 50 4.8 SSW 24 28 13 15 1019.2 1019.2 0.0
02/05:00pm 15.7 9.6 5.0 49 5.1 SSW 26 33 14 18 1018.8 1018.7 0.0
02/04:30pm 16.1 10.3 4.5 46 5.5 S 24 32 13 17 1018.5 1018.4 0.0
02/04:00pm 16.7 11.7 4.7 45 5.7 SSW 20 26 11 14 1018.3 1018.2 0.0
02/03:30pm 16.5 10.7 4.5 45 5.7 SSW 24 35 13 19 1018.1 1018.0 0.0
02/03:00pm 16.4 9.8 4.1 44 5.8 S 28 35 15 19 1017.8 1017.7 0.0
02/02:30pm 16.1 9.8 3.9 44 5.7 S 26 35 14 19 1017.7 1017.6 0.0
02/02:00pm 15.7 9.0 3.8 45 5.5 S 28 41 15 22 1017.6 1017.5 0.0
02/01:30pm 15.3 8.7 4.4 48 5.1 S 28 35 15 19 1017.6 1017.5 0.0
02/01:00pm 15.5 8.7 5.1 50 4.9 S 30 39 16 21 1017.6 1017.5 0.0
02/12:30pm 15.3 8.7 6.1 54 4.5 S 30 39 16 21 1017.8 1017.7 0.0
02/12:00pm 14.2 7.3 6.3 59 3.8 S 32 39 17 21 1018.1 1018.0 0.0
02/11:30am 13.4 6.4 6.7 64 3.3 S 33 43 18 23 1018.1 1018.0 0.0
02/11:00am 12.9 6.2 7.4 69 2.7 S 32 43 17 23 1017.9 1017.8 0.0
02/10:30am 13.2 7.4 7.9 70 2.6 S 28 35 15 19 1017.6 1017.5 0.0
02/10:00am 13.1 7.3 8.0 71 2.5 S 28 35 15 19 1017.2 1017.1 0.0
02/09:30am 12.3 8.1 7.4 72 2.4 S 19 26 10 14 1016.3 1016.3 0.0
02/09:00am 11.5 7.2 7.2 75 2.1 S 19 26 10 14 1016.0 1016.0 0.0
02/08:30am 11.0 6.2 7.3 78 1.8 SSW 22 28 12 15 1015.8 1015.8 0.0
02/08:00am 10.6 7.8 8.4 86 1.1 SSW 13 19 7 10 1015.6 1015.6 0.0
02/07:30am 10.2 6.5 7.8 85 1.2 SSW 17 22 9 12 1015.5 1015.5 0.0
02/07:00am 11.4 6.7 5.3 66 2.8 SW 19 30 10 16 1015.1 1015.1 0.0
02/06:30am 12.4 7.3 3.1 53 4.1 WSW 19 30 10 16 1014.3 1014.3 0.0
02/06:16am 13.5 8.4 4.1 53 4.3 WNW 20 52 11 28 1013.8 1013.8 0.0
02/06:14am 11.1 6.4 2.9 57 3.6 NW 17 41 9 22 1014.1 1014.1 0.0
02/06:00am 12.6 8.3 3.3 53 4.2 NNW 15 17 8 9 1013.1 1013.0 0.0
02/05:30am 14.0 9.7 3.5 49 4.8 NNW 15 17 8 9 1013.0 1012.9 0.0
02/05:00am 14.6 9.9 3.4 47 5.1 N 17 19 9 10 1012.9 1012.8 0.0
02/04:30am 14.8 9.7 3.3 46 5.2 N 19 22 10 12 1012.8 1012.7 0.0
02/04:00am 15.0 9.7 3.2 45 5.4 N 20 26 11 14 1012.8 1012.7 0.0
02/03:30am 13.8 9.4 2.7 47 5.0 N 15 17 8 9 1013.2 1013.1 0.0
02/03:00am 13.7 9.3 2.6 47 4.9 NNW 15 17 8 9 1013.3 1013.2 0.0
02/02:30am 15.9 11.0 2.3 40 6.1 NNW 17 19 9 10 1013.4 1013.3 0.0
02/02:00am 16.8 11.6 2.4 38 6.6 N 19 24 10 13 1013.3 1013.2 0.0
02/01:30am 17.5 11.7 2.3 36 6.9 N 22 28 12 15 1013.4 1013.3 0.0
02/01:00am 18.0 11.8 1.9 34 7.3 N 24 32 13 17 1013.5 1013.4 0.0
02/12:30am 18.3 11.7 1.8 33 7.5 N 26 33 14 18 1013.8 1013.8 0.0
02/12:00am 18.1 11.8 1.6 33 7.5 N 24 30 13 16 1013.8 1013.8 0.0
 
Date/Time
EST
Temp
°C
App
Temp
°C
Dew
Point
Rel
Hum
%
Delta-T
°C
Wind Press
QNH
hPa
Press
MSL
hPa
Rain
since 9 am
mm
Dir
 
Spd
km/h
Gust
km/h
Spd
kts
Gust
kts
01/11:30pm 18.1 12.2 1.6 33 7.5 N 22 28 12 15 1014.1 1014.1 0.0
01/11:00pm 18.5 12.9 1.5 32 7.7 N 20 26 11 14 1014.5 1014.5 0.0
01/10:30pm 18.6 12.7 1.6 32 7.7 N 22 28 12 15 1014.5 1014.5 0.0
01/10:00pm 18.9 13.3 1.4 31 7.9 N 20 26 11 14 1014.8 1014.8 0.0
01/09:30pm 19.6 13.6 1.1 29 8.4 N 22 28 12 15 1014.9 1014.9 0.0
01/09:00pm 19.9 14.0 1.4 29 8.5 N 22 28 12 15 1015.0 1015.0 0.0
01/08:30pm 19.7 14.8 1.7 30 8.3 N 17 22 9 12 1015.0 1015.0 0.0
01/08:00pm 19.0 14.4 1.5 31 8.0 N 15 17 8 9 1015.0 1015.0 0.0
01/07:30pm 19.2 14.6 1.7 31 8.0 NNE 15 17 8 9 1014.8 1014.8 0.0
01/07:00pm 20.3 15.7 1.7 29 8.6 N 15 17 8 9 1014.9 1014.9 0.0
01/06:30pm 21.4 16.9 2.2 28 9.0 N 15 17 8 9 1014.8 1014.8 0.0
01/06:00pm 22.6 18.1 2.1 26 9.7 N 15 19 8 10 1014.7 1014.7 0.0
01/05:30pm 25.2 19.2 1.3 21 11.4 NNW 22 28 12 15 1014.7 1014.7 0.0
01/05:00pm 26.0 19.3 1.3 20 11.8 NNW 26 35 14 19 1014.5 1014.5 0.0
01/04:30pm 26.1 19.4 1.4 20 11.8 NNW 26 35 14 19 1014.7 1014.7 0.0
01/04:00pm 26.1 19.0 1.4 20 11.8 NNW 28 37 15 20 1014.9 1014.9 0.0
01/03:30pm 26.9 19.0 1.3 19 12.3 NNW 32 39 17 21 1014.9 1014.9 0.0
01/03:00pm 26.3 19.0 0.1 18 12.3 NNW 28 35 15 19 1014.9 1014.9 0.0
01/02:30pm 27.2 19.3 0.8 18 12.6 NW 32 41 17 22 1015.2 1015.2 0.0
01/02:00pm 26.8 17.7 -0.3 17 12.7 NNW 37 48 20 26 1015.4 1015.4 0.0
01/01:30pm 25.8 17.0 -1.1 17 12.3 NW 35 44 19 24 1015.9 1015.9 0.0
01/01:00pm 25.8 17.5 -1.9 16 12.5 NW 32 43 17 23 1016.5 1016.4 0.0
01/12:30pm 24.9 16.4 -1.8 17 12.0 NNW 33 43 18 23 1016.9 1016.8 0.0
01/12:00pm 24.5 15.2 -2.1 17 11.8 NNW 37 46 20 25 1017.5 1017.4 0.0
01/11:30am 23.1 14.2 -1.8 19 11.0 NNW 35 43 19 23 1017.6 1017.5 0.0
01/11:00am 21.2 12.8 -1.3 22 9.8 NNW 33 41 18 22 1017.8 1017.7 0.0
01/10:30am 20.3 11.9 -2.1 22 9.6 NNW 32 41 17 22 1018.1 1018.0 0.0
01/10:00am 18.5 10.2 -1.9 25 8.6 NNW 32 39 17 21 1018.2 1018.1 0.0
01/09:30am 17.4 9.3 -2.8 25 8.3 NNW 30 39 16 21 1018.3 1018.4 0.0
01/09:00am 15.7 9.2 -2.3 29 7.3 NNW 22 28 12 15 1018.2 1018.3 0.0
01/08:30am 13.4 7.5 -2.1 34 6.2 NNW 19 24 10 13 1018.1 1018.2 0.0
01/08:00am 12.7 6.6 -3.5 32 6.2 NNW 19 24 10 13 1017.7 1017.8 0.0
01/07:30am 12.3 6.6 -3.9 32 6.2 N 17 22 9 12 1017.3 1017.4 0.0
01/07:00am 10.3 5.0 -3.4 38 5.1 NNW 15 19 8 10 1017.4 1017.5 0.0
01/06:30am 12.3 6.0 -4.3 31 6.2 NNW 20 24 11 13 1017.3 1017.4 0.0
01/06:00am 12.7 6.4 -4.4 30 6.4 NNW 20 24 11 13 1017.1 1017.1 0.0
01/05:30am 10.5 4.9 -2.8 39 5.1 NNW 17 19 9 10 1017.1 1017.1 0.0
01/05:00am 10.0 4.1 -2.0 43 4.6 NNW 19 20 10 11 1017.2 1017.2 0.0
01/04:30am 9.2 4.1 -2.1 45 4.3 NW 15 17 8 9 1017.3 1017.4 0.0
01/04:00am 10.3 4.8 -2.0 42 4.8 NNW 17 20 9 11 1017.3 1017.4 0.0
01/03:30am 11.0 5.9 -2.1 40 5.1 NNW 15 19 8 10 1017.6 1017.7 0.0
01/03:00am 10.3 5.6 -2.0 42 4.8 NNW 13 15 7 8 1018.1 1018.2 0.0
01/02:30am 13.6 7.9 -4.1 29 6.8 NNW 17 19 9 10 1018.5 1018.6 0.0
01/02:00am 14.4 8.7 -3.9 28 7.1 N 17 20 9 11 1018.3 1018.4 0.0
01/01:30am 14.9 9.2 -3.4 28 7.2 N 17 22 9 12 1018.6 1018.7 0.0
01/01:00am 14.5 9.3 -2.8 30 6.9 N 15 19 8 10 1018.9 1019.0 0.0
01/12:30am 13.7 8.5 -2.7 32 6.5 N 15 17 8 9 1019.2 1019.3 0.0
01/12:00am 13.3 8.2 -2.2 34 6.2 N 15 17 8 9 1019.2 1019.3 0.0
 
Date/Time
EST
Temp
°C
App
Temp
°C
Dew
Point
Rel
Hum
%
Delta-T
°C
Wind Press
QNH
hPa
Press
MSL
hPa
Rain
since 9 am
mm
Dir
 
Spd
km/h
Gust
km/h
Spd
kts
Gust
kts
31/11:30pm 13.9 9.2 -1.7 34 6.3 N 13 15 7 8 1019.7 1019.8 0.0
31/11:00pm 13.6 9.0 -1.2 36 6.0 N 13 15 7 8 1019.9 1020.0 0.0
31/10:30pm 13.5 8.5 -1.3 36 6.0 NNE 15 17 8 9 1019.6 1019.7 0.0
31/10:00pm 13.0 8.1 -0.6 39 5.6 N 15 17 8 9 1019.7 1019.8 0.0
31/09:30pm 12.9 8.0 -0.7 39 5.6 NNE 15 17 8 9 1019.7 1019.8 0.0
31/09:00pm 12.8 8.3 -0.4 40 5.4 NNE 13 17 7 9 1019.8 1019.9 0.0
31/08:30pm 13.1 8.2 -0.5 39 5.6 NNE 15 15 8 8 1020.0 1020.1 0.0
31/08:00pm 13.5 8.9 -0.9 37 5.9 NNE 13 15 7 8 1020.0 1020.1 0.0
31/07:30pm 14.4 9.8 -0.8 35 6.3 N 13 15 7 8 1020.0 1020.1 0.0
31/07:00pm 15.3 10.7 -0.9 33 6.8 N 13 15 7 8 1019.7 1019.8 0.0
31/06:30pm 16.5 11.9 -0.7 31 7.3 N 13 13 7 7 1019.6 1019.7 0.0
31/06:00pm 17.6 13.1 -0.6 29 7.8 N 13 15 7 8 1019.1 1019.2 0.0
31/05:30pm 19.6 14.7 -0.4 26 8.8 N 15 19 8 10 1018.9 1019.0 0.0
31/05:00pm 20.6 15.4 -0.1 25 9.2 N 17 22 9 12 1018.9 1019.0 0.0
31/04:30pm 20.9 15.7 0.2 25 9.3 N 17 24 9 13 1019.1 1019.2 0.0
31/04:00pm 21.1 16.0 0.9 26 9.2 N 17 22 9 12 1019.2 1019.3 0.0
31/03:30pm 21.2 16.5 1.0 26 9.3 N 15 20 8 11 1019.4 1019.5 0.0
31/03:00pm 20.9 16.2 1.2 27 9.0 N 15 20 8 11 1019.6 1019.7 0.0
31/02:30pm 20.0 16.8 3.3 33 7.9 NE 9 15 5 8 1019.9 1020.0 0.0
31/02:00pm 19.5 16.6 2.8 33 7.8 NE 7 13 4 7 1020.5 1020.6 0.0
31/01:30pm 18.3 14.7 3.0 36 7.1 E 11 15 6 8 1021.0 1021.1 0.0
31/01:00pm 18.3 14.5 3.8 38 6.8 ENE 13 17 7 9 1021.5 1021.6 0.0
31/12:30pm 17.5 13.3 3.8 40 6.5 E 15 20 8 11 1022.1 1022.2 0.0
31/12:00pm 16.9 12.6 3.2 40 6.3 E 15 19 8 10 1022.6 1022.8 0.0
31/11:30am 16.0 12.1 3.4 43 5.8 ESE 13 19 7 10 1023.0 1023.2 0.0
31/11:00am 15.8 11.9 3.3 43 5.7 ESE 13 17 7 9 1023.2 1023.3 0.0
31/10:30am 15.5 11.6 3.3 44 5.6 ESE 13 17 7 9 1023.5 1023.6 0.0
31/10:00am 14.4 9.8 1.3 41 5.7 SSE 15 19 8 10 1023.4 1023.5 0.0
31/09:30am 14.3 10.8 1.2 41 5.7 SE 9 17 5 9 1023.3 1023.4 0.0
31/09:00am 13.0 10.1 1.4 45 5.0 SE 6 9 3 5 1023.0 1023.2 0.0
31/08:30am 11.0 8.0 2.3 55 3.8 SSE 7 11 4 6 1022.8 1023.0 0.0
31/08:00am 7.8 5.9 0.5 60 2.9 CALM 0 0 0 0 1022.4 1022.5 0.0
31/07:30am 6.5 4.0 -0.7 60 2.8 WNW 2 6 1 3 1022.3 1022.4 0.0
31/07:00am 6.2 2.8 -0.7 61 2.6 WNW 7 9 4 5 1022.1 1022.2 0.0
31/06:30am 6.7 3.3 -0.7 59 2.8 W 7 9 4 5 1021.7 1021.8 0.0
31/06:00am 7.5 3.7 -0.7 56 3.2 NW 9 9 5 5 1021.4 1021.5 0.0
31/05:30am 7.9 4.1 -0.6 55 3.3 NNW 9 11 5 6 1021.0 1021.1 0.0
31/05:00am 8.7 5.0 -0.3 53 3.6 NNW 9 11 5 6 1021.0 1021.1 0.0
31/04:30am 8.8 4.7 -0.2 53 3.6 NNW 11 11 6 6 1020.8 1020.9 0.0
31/04:00am 9.0 4.5 -0.1 53 3.6 NNW 13 13 7 7 1020.9 1021.0 0.0
31/03:30am 8.7 4.7 0.2 55 3.4 NNW 11 13 6 7 1021.1 1021.2 0.0
31/03:00am 8.1 3.7 0.1 57 3.2 NNW 13 15 7 8 1021.3 1021.4 0.0
31/02:30am 8.2 3.8 0.4 58 3.1 NNW 13 15 7 8 1021.4 1021.5 0.0
31/02:00am 8.5 3.7 0.5 57 3.2 NW 15 15 8 8 1021.8 1021.9 0.0
31/01:30am 8.8 4.5 1.0 58 3.2 WNW 13 15 7 8 1021.9 1022.0 0.0
31/01:00am 9.5 5.6 1.2 56 3.4 NW 11 13 6 7 1022.1 1022.2 0.0
31/12:30am 9.2 4.5 0.9 56 3.4 NW 15 15 8 8 1022.1 1022.2 0.0
31/12:00am 8.5 3.8 0.7 58 3.2 NW 15 15 8 8 1022.1 1022.2 0.0
 
Date/Time
EST
Temp
°C
App
Temp
°C
Dew
Point
Rel
Hum
%
Delta-T
°C
Wind Press
QNH
hPa
Press
MSL
hPa
Rain
since 9 am
mm
Dir
 
Spd
km/h
Gust
km/h
Spd
kts
Gust
kts
30/11:30pm 9.3 5.4 1.0 56 3.4 NW 11 13 6 7 1022.2 1022.3 0.0
30/11:00pm 9.6 5.2 0.5 53 3.7 NNW 13 15 7 8 1022.1 1022.2 0.0
30/10:30pm 11.2 6.8 0.3 47 4.5 NNW 13 13 7 7 1022.0 1022.1 0.0
30/10:00pm 12.4 8.0 0.2 43 5.1 NNW 13 15 7 8 1021.7 1021.8 0.0
30/09:30pm 12.0 7.7 0.8 46 4.7 N 13 15 7 8 1021.9 1022.0 0.0
30/09:00pm 12.5 8.2 0.9 45 4.9 N 13 15 7 8 1021.8 1021.9 0.0
30/08:30pm 12.6 9.0 0.7 44 5.0 N 9 9 5 5 1022.0 1022.1 0.0

Other Formats:

Comma delimited format used in spreadsheet applications
http://www.bom.gov.au/fwo/IDN60801/IDN60801.95699.axf

JavaScript Object Notation format (JSON) in row-major order
http://www.bom.gov.au/fwo/IDN60801/IDN60801.95699.json